createdAt,value
2023-02-08T00:00:33.638Z,-0.60
2023-02-08T00:03:04.932Z,-0.40
2023-02-08T00:05:36.044Z,-0.50
2023-02-08T00:08:07.925Z,-0.50
2023-02-08T00:10:39.388Z,-0.40
2023-02-08T00:13:11.147Z,-0.50
2023-02-08T00:15:45.566Z,-0.70
2023-02-08T00:18:16.621Z,-0.60
2023-02-08T00:20:48.003Z,-0.70
2023-02-08T00:23:19.795Z,-0.80
2023-02-08T00:25:50.717Z,-0.90
2023-02-08T00:28:22.015Z,-0.80
2023-02-08T00:30:53.568Z,-0.60
2023-02-08T00:33:24.682Z,-0.20
2023-02-08T00:36:01.037Z,-0.10
2023-02-08T00:38:32.652Z,-0.20
2023-02-08T00:41:03.959Z,-0.20
2023-02-08T00:43:35.426Z,-0.40
2023-02-08T00:46:08.191Z,-0.40
2023-02-08T00:48:39.343Z,-0.50
2023-02-08T00:51:13.235Z,-0.90
2023-02-08T00:53:45.977Z,-1.00
2023-02-08T00:56:17.838Z,-1.20
2023-02-08T00:58:48.897Z,-1.20
2023-02-08T01:01:19.875Z,-1.30
2023-02-08T01:03:51.139Z,-1.20
2023-02-08T01:06:22.753Z,-1.20
2023-02-08T01:08:53.713Z,-1.10
2023-02-08T01:11:26.099Z,-1.10
2023-02-08T01:13:58.735Z,-1.40
2023-02-08T01:16:32.834Z,-1.50
2023-02-08T01:19:05.856Z,-1.20
2023-02-08T01:21:38.669Z,-1.10
2023-02-08T01:24:10.273Z,-1.30
2023-02-08T01:26:42.456Z,-1.40
2023-02-08T01:29:13.574Z,-1.30
2023-02-08T01:31:45.852Z,-1.30
2023-02-08T01:34:16.875Z,-1.40
2023-02-08T01:36:48.791Z,-1.30
2023-02-08T01:39:19.776Z,-1.20
2023-02-08T01:41:50.824Z,-1.50
2023-02-08T01:44:57.591Z,-1.60
2023-02-08T01:47:29.041Z,-1.70
2023-02-08T01:50:19.504Z,-1.80
2023-02-08T01:52:50.871Z,-1.80
2023-02-08T01:55:24.896Z,-1.90
2023-02-08T01:57:58.780Z,-1.90
2023-02-08T02:00:30.515Z,-1.90
2023-02-08T02:03:02.234Z,-1.80
2023-02-08T02:05:37.970Z,-1.80
2023-02-08T02:08:10.102Z,-1.70
2023-02-08T02:10:43.105Z,-1.70
2023-02-08T02:13:16.021Z,-1.80
2023-02-08T02:15:47.609Z,-1.90
2023-02-08T02:21:12.239Z,-1.90
2023-02-08T02:24:42.393Z,-1.90
2023-02-08T02:27:30.359Z,-2.00
2023-02-08T02:30:28.747Z,-1.70
2023-02-08T02:33:29.457Z,-1.40
2023-02-08T02:36:04.062Z,-1.20
2023-02-08T02:38:42.189Z,-1.30
2023-02-08T02:41:19.476Z,-1.50
2023-02-08T02:43:53.530Z,-1.70
2023-02-08T02:46:28.801Z,-1.70
2023-02-08T02:49:03.689Z,-1.60
2023-02-08T02:51:38.798Z,-1.60
2023-02-08T02:54:12.896Z,-1.50
2023-02-08T02:56:46.518Z,-1.70
2023-02-08T02:59:19.371Z,-1.50
2023-02-08T03:01:50.979Z,-1.60
2023-02-08T03:04:42.066Z,-1.70
2023-02-08T03:07:15.847Z,-1.90
2023-02-08T03:10:00.651Z,-2.10
2023-02-08T03:12:51.807Z,-2.10
2023-02-08T03:15:27.363Z,-2.10
2023-02-08T03:18:04.417Z,-2.10
2023-02-08T03:20:38.786Z,-2.20
2023-02-08T03:23:13.728Z,-2.30
2023-02-08T03:25:48.796Z,-2.20
2023-02-08T03:28:24.109Z,-2.30
2023-02-08T03:31:00.019Z,-2.50
2023-02-08T03:33:35.000Z,-2.60
2023-02-08T03:36:10.031Z,-2.60
2023-02-08T03:38:44.140Z,-2.50
2023-02-08T03:41:17.817Z,-2.30
2023-02-08T03:46:32.699Z,-2.00
2023-02-08T03:49:06.586Z,-2.00
2023-02-08T03:51:40.011Z,-1.90
2023-02-08T03:54:13.074Z,-1.90
2023-02-08T03:56:47.178Z,-2.00
2023-02-08T03:59:20.650Z,-2.00
2023-02-08T04:01:54.448Z,-2.00
2023-02-08T04:04:27.817Z,-1.90
2023-02-08T04:07:00.122Z,-2.10
2023-02-08T04:09:30.851Z,-1.90
2023-02-08T04:12:01.467Z,-1.90
2023-02-08T04:14:32.145Z,-1.80
2023-02-08T04:17:02.945Z,-1.90
2023-02-08T04:19:33.589Z,-2.00
2023-02-08T04:22:04.267Z,-2.20
2023-02-08T04:24:34.873Z,-2.50
2023-02-08T04:27:06.161Z,-2.70
2023-02-08T04:29:36.939Z,-2.90
2023-02-08T04:32:09.795Z,-3.00
2023-02-08T04:34:40.845Z,-2.90
2023-02-08T04:37:12.318Z,-2.90
2023-02-08T04:39:43.477Z,-2.90
2023-02-08T04:42:14.536Z,-2.80
2023-02-08T04:44:45.593Z,-2.70
2023-02-08T04:47:16.659Z,-2.70
2023-02-08T04:49:47.717Z,-2.60
2023-02-08T04:52:18.803Z,-2.50
2023-02-08T04:54:49.776Z,-2.50
2023-02-08T04:57:21.014Z,-2.30
2023-02-08T04:59:51.970Z,-2.30
2023-02-08T05:02:22.929Z,-2.00
2023-02-08T05:04:53.944Z,-2.00
2023-02-08T05:07:24.985Z,-1.80
2023-02-08T05:09:55.928Z,-1.90
2023-02-08T05:12:27.066Z,-2.10
2023-02-08T05:17:37.011Z,-2.60
2023-02-08T05:20:09.815Z,-2.80
2023-02-08T05:22:40.563Z,-2.80
2023-02-08T05:25:12.015Z,-2.70
2023-02-08T05:27:43.067Z,-2.60
2023-02-08T05:30:15.227Z,-2.40
2023-02-08T05:32:45.877Z,-2.30
2023-02-08T05:35:16.728Z,-2.10
2023-02-08T05:37:47.483Z,-2.10
2023-02-08T05:40:18.631Z,-2.10
2023-02-08T05:42:49.263Z,-1.90
2023-02-08T05:45:20.257Z,-2.00
2023-02-08T05:47:50.912Z,-2.20
2023-02-08T05:50:21.775Z,-2.20
2023-02-08T05:52:52.556Z,-2.20
2023-02-08T05:55:23.246Z,-2.50
2023-02-08T05:57:53.971Z,-2.70
2023-02-08T06:00:24.852Z,-2.70
2023-02-08T06:02:55.483Z,-2.70
2023-02-08T06:05:26.563Z,-2.60
2023-02-08T06:07:57.557Z,-2.70
2023-02-08T06:10:28.308Z,-2.70
2023-02-08T06:12:58.936Z,-2.90
2023-02-08T06:15:29.893Z,-2.90
2023-02-08T06:18:00.597Z,-2.90
2023-02-08T06:20:31.352Z,-2.80
2023-02-08T06:23:02.028Z,-3.00
2023-02-08T06:25:32.997Z,-3.00
2023-02-08T06:28:04.149Z,-3.00
2023-02-08T06:30:35.082Z,-2.90
2023-02-08T06:33:06.098Z,-2.90
2023-02-08T06:35:36.874Z,-2.90
2023-02-08T06:38:07.594Z,-2.90
2023-02-08T06:40:38.697Z,-2.90
2023-02-08T06:43:10.083Z,-2.80
2023-02-08T06:45:43.023Z,-2.80
2023-02-08T06:48:14.250Z,-3.00
2023-02-08T06:50:45.393Z,-3.10
2023-02-08T06:53:16.289Z,-2.90
2023-02-08T06:55:50.135Z,-2.80
2023-02-08T06:58:21.479Z,-2.90
2023-02-08T07:00:52.167Z,-2.90
2023-02-08T07:03:23.504Z,-3.00
2023-02-08T07:06:04.560Z,-3.10
2023-02-08T07:11:09.203Z,-2.90
2023-02-08T07:13:40.871Z,-3.00
2023-02-08T07:16:13.007Z,-3.10
2023-02-08T07:18:43.996Z,-3.10
2023-02-08T07:21:15.415Z,-3.10
2023-02-08T07:23:46.346Z,-3.10
2023-02-08T07:26:17.427Z,-3.00
2023-02-08T07:28:48.356Z,-2.90
2023-02-08T07:31:20.263Z,-2.90
2023-02-08T07:33:50.983Z,-2.70
2023-02-08T07:36:21.647Z,-2.80
2023-02-08T07:38:52.324Z,-2.90
2023-02-08T07:41:23.043Z,-3.00
2023-02-08T07:43:53.828Z,-3.20
2023-02-08T07:46:24.793Z,-3.10
2023-02-08T07:48:55.503Z,-2.90
2023-02-08T07:51:26.359Z,-2.70
2023-02-08T07:53:57.286Z,-2.90
2023-02-08T07:56:29.116Z,-2.80
2023-02-08T07:58:59.963Z,-2.80
2023-02-08T08:01:30.864Z,-2.50
2023-02-08T08:04:01.629Z,-2.70
2023-02-08T08:06:32.499Z,-2.50
2023-02-08T08:09:03.253Z,-2.20
2023-02-08T08:11:34.204Z,-1.90
2023-02-08T08:14:05.004Z,-1.70
2023-02-08T08:16:35.867Z,-1.50
2023-02-08T08:19:06.819Z,-1.60
2023-02-08T08:21:37.434Z,-1.40
2023-02-08T08:24:08.707Z,-1.30
2023-02-08T08:26:39.475Z,-1.30
2023-02-08T08:29:10.107Z,-1.20
2023-02-08T08:31:42.363Z,-1.10
2023-02-08T08:34:13.158Z,-1.10
2023-02-08T08:36:44.117Z,-1.00
2023-02-08T08:39:14.787Z,-0.80
2023-02-08T08:41:45.458Z,-0.70
2023-02-08T08:44:16.190Z,-0.60
2023-02-08T08:46:47.124Z,-0.40
2023-02-08T08:49:18.005Z,-0.20
2023-02-08T08:51:48.744Z,-0.20
2023-02-08T08:54:20.001Z,-0.10
2023-02-08T08:56:50.941Z,0.10
2023-02-08T08:59:21.619Z,0.20
2023-02-08T09:01:52.385Z,0.20
2023-02-08T09:04:23.164Z,0.40
2023-02-08T09:06:54.737Z,0.40
2023-02-08T09:09:25.620Z,0.50
2023-02-08T09:11:56.288Z,0.40
2023-02-08T09:14:27.239Z,0.50
2023-02-08T09:16:57.992Z,0.50
2023-02-08T09:22:27.100Z,0.70
2023-02-08T09:24:58.335Z,0.80
2023-02-08T09:27:29.703Z,0.90
2023-02-08T09:30:00.865Z,1.00
2023-02-08T09:32:35.185Z,1.10
2023-02-08T09:35:06.451Z,1.30
2023-02-08T09:37:37.792Z,1.40
2023-02-08T09:40:14.047Z,1.50
2023-02-08T09:42:47.877Z,1.70
2023-02-08T09:48:16.074Z,2.00
2023-02-08T09:50:50.170Z,2.10
2023-02-08T09:53:23.976Z,2.20
2023-02-08T09:55:59.997Z,2.20
2023-02-08T09:58:33.629Z,2.10
2023-02-08T10:01:07.601Z,2.30
2023-02-08T10:03:41.562Z,2.40
2023-02-08T10:06:15.855Z,2.40
2023-02-08T10:08:48.056Z,2.60
2023-02-08T10:11:32.248Z,2.50
2023-02-08T10:14:23.028Z,2.60
2023-02-08T10:17:06.185Z,2.80
2023-02-08T10:19:50.885Z,2.50
2023-02-08T10:22:27.721Z,2.80
2023-02-08T10:25:24.740Z,2.90
2023-02-08T10:28:03.348Z,3.10
2023-02-08T10:33:19.650Z,3.20
2023-02-08T10:35:52.196Z,3.10
2023-02-08T10:38:45.250Z,3.30
2023-02-08T10:41:07.079Z,3.20
2023-02-08T10:46:22.760Z,3.20
2023-02-08T10:49:00.293Z,3.10
2023-02-08T10:51:32.225Z,3.30
2023-02-08T10:54:03.544Z,3.40
2023-02-08T10:56:45.462Z,3.70
2023-02-08T10:59:21.365Z,3.60
2023-02-08T11:01:54.169Z,3.50
2023-02-08T11:04:25.246Z,3.60
2023-02-08T11:06:56.180Z,3.70
2023-02-08T11:09:30.028Z,4.00
2023-02-08T11:12:02.357Z,4.30
2023-02-08T11:14:46.102Z,4.50
2023-02-08T11:17:15.641Z,4.60
2023-02-08T11:19:47.228Z,4.80
2023-02-08T11:22:20.399Z,5.00
2023-02-08T11:24:58.421Z,5.10
2023-02-08T11:27:37.527Z,5.10
2023-02-08T11:30:24.708Z,5.00
2023-02-08T11:33:19.068Z,5.10
2023-02-08T11:35:58.003Z,5.10
2023-02-08T11:38:29.561Z,5.30
2023-02-08T11:41:03.023Z,5.40
2023-02-08T11:43:36.193Z,6.00
2023-02-08T11:46:07.757Z,6.50
2023-02-08T11:48:43.498Z,6.50
2023-02-08T11:51:16.762Z,6.70
2023-02-08T11:53:51.018Z,6.90
2023-02-08T11:56:23.726Z,7.30
2023-02-08T12:01:44.573Z,7.70
2023-02-08T12:04:17.654Z,8.00
2023-02-08T12:07:05.287Z,8.00
2023-02-08T12:10:07.852Z,8.20
2023-02-08T12:12:47.419Z,8.40
2023-02-08T12:15:24.535Z,7.80
2023-02-08T12:21:01.367Z,8.40
2023-02-08T12:23:42.612Z,8.80
2023-02-08T12:26:37.751Z,8.90
2023-02-08T12:29:17.189Z,9.30
2023-02-08T12:31:59.010Z,9.50
2023-02-08T12:34:35.357Z,9.60
2023-02-08T12:37:34.675Z,9.50
2023-02-08T12:40:29.475Z,9.60
2023-02-08T12:43:06.525Z,8.80
2023-02-08T12:46:00.013Z,9.50
2023-02-08T12:48:39.494Z,9.70
2023-02-08T12:51:15.425Z,10.00
2023-02-08T12:53:49.235Z,10.10
2023-02-08T12:56:22.808Z,10.20
2023-02-08T12:59:01.936Z,10.20
2023-02-08T13:01:32.532Z,9.80
2023-02-08T13:04:06.926Z,9.70
2023-02-08T13:06:40.557Z,9.60
2023-02-08T13:09:16.324Z,10.00
2023-02-08T13:11:50.794Z,10.00
2023-02-08T13:14:27.484Z,10.10
2023-02-08T13:17:02.342Z,9.90
2023-02-08T13:19:36.454Z,10.20
2023-02-08T13:22:07.622Z,10.20
2023-02-08T13:24:41.189Z,9.90
2023-02-08T13:27:18.498Z,10.10
2023-02-08T13:29:51.888Z,9.30
2023-02-08T13:32:29.680Z,9.00
2023-02-08T13:37:41.376Z,8.40
2023-02-08T13:40:23.602Z,8.80
2023-02-08T13:42:57.942Z,8.60
2023-02-08T13:45:32.034Z,8.30
2023-02-08T13:48:04.952Z,8.40
2023-02-08T13:50:46.108Z,8.40
2023-02-08T13:53:18.425Z,8.40
2023-02-08T13:56:06.828Z,8.30
2023-02-08T13:59:09.894Z,8.30
2023-02-08T14:01:43.643Z,8.70
2023-02-08T14:04:33.189Z,8.90
2023-02-08T14:07:16.312Z,8.80
2023-02-08T14:10:08.531Z,8.60
2023-02-08T14:12:43.778Z,8.40
2023-02-08T14:15:37.792Z,8.00
2023-02-08T14:18:25.820Z,7.90
2023-02-08T14:21:05.215Z,8.00
2023-02-08T14:26:20.954Z,7.30
2023-02-08T14:28:56.460Z,7.30
2023-02-08T14:31:38.434Z,7.50
2023-02-08T14:34:15.523Z,7.30
2023-02-08T14:36:46.742Z,7.20
2023-02-08T14:39:29.186Z,7.20
2023-02-08T14:42:03.258Z,7.70
2023-02-08T14:45:05.314Z,7.90
2023-02-08T14:50:46.409Z,7.40
2023-02-08T14:53:42.577Z,7.30
2023-02-08T14:56:20.469Z,7.10
2023-02-08T14:58:55.332Z,7.10
2023-02-08T15:01:28.972Z,6.90
2023-02-08T15:04:02.829Z,6.80
2023-02-08T15:07:00.170Z,6.80
2023-02-08T15:09:33.345Z,6.50
2023-02-08T15:12:05.974Z,6.40
2023-02-08T15:14:39.758Z,6.20
2023-02-08T15:17:19.589Z,6.10
2023-02-08T15:19:51.853Z,6.40
2023-02-08T15:22:36.051Z,6.40
2023-02-08T15:25:25.531Z,6.40
2023-02-08T15:27:58.258Z,6.10
2023-02-08T15:30:33.961Z,6.10
2023-02-08T15:33:06.934Z,6.10
2023-02-08T15:35:39.102Z,5.70
2023-02-08T15:38:14.867Z,5.70
2023-02-08T15:40:47.911Z,5.80
2023-02-08T15:43:20.214Z,5.70
2023-02-08T15:46:00.301Z,5.80
2023-02-08T15:48:33.330Z,5.80
2023-02-08T15:51:07.355Z,5.90
2023-02-08T15:53:40.481Z,6.00
2023-02-08T15:56:13.465Z,5.90
2023-02-08T15:58:47.405Z,5.80
2023-02-08T16:01:21.475Z,5.90
2023-02-08T16:03:55.430Z,5.60
2023-02-08T16:06:29.017Z,5.70
2023-02-08T16:09:02.680Z,5.60
2023-02-08T16:11:35.452Z,5.30
2023-02-08T16:14:28.858Z,5.20
2023-02-08T16:16:59.478Z,5.20
2023-02-08T16:19:32.135Z,5.10
2023-02-08T16:22:26.699Z,5.10
2023-02-08T16:25:17.786Z,5.10
2023-02-08T16:27:51.104Z,5.10
2023-02-08T16:30:24.404Z,5.10
2023-02-08T16:32:55.278Z,5.10
2023-02-08T16:35:29.719Z,5.00
2023-02-08T16:38:03.004Z,4.80
2023-02-08T16:40:48.441Z,4.70
2023-02-08T16:43:24.782Z,4.70
2023-02-08T16:46:21.410Z,4.80
2023-02-08T16:48:54.295Z,4.60
2023-02-08T16:51:27.983Z,4.60
2023-02-08T16:54:01.147Z,4.50
2023-02-08T16:56:32.067Z,4.50
2023-02-08T16:59:02.772Z,4.50
2023-02-08T17:01:34.002Z,4.40
2023-02-08T17:04:04.770Z,4.30
2023-02-08T17:06:38.273Z,4.00
2023-02-08T17:09:10.614Z,4.00
2023-02-08T17:11:41.696Z,4.00
2023-02-08T17:14:12.400Z,3.90
2023-02-08T17:16:44.033Z,3.60
2023-02-08T17:19:17.783Z,3.50
2023-02-08T17:21:49.206Z,3.40
2023-02-08T17:24:20.974Z,3.40
2023-02-08T17:26:51.963Z,3.00
2023-02-08T17:29:22.765Z,2.60
2023-02-08T17:31:53.667Z,2.60
2023-02-08T17:34:24.768Z,2.50
2023-02-08T17:36:56.208Z,2.60
2023-02-08T17:39:27.382Z,2.50
2023-02-08T17:41:59.017Z,2.50
2023-02-08T17:44:30.376Z,2.30
2023-02-08T17:47:01.137Z,2.20
2023-02-08T17:49:32.346Z,2.00
2023-02-08T17:52:03.155Z,2.00
2023-02-08T17:54:35.489Z,1.90
2023-02-08T17:57:08.496Z,1.80
2023-02-08T17:59:41.792Z,1.80
2023-02-08T18:02:12.501Z,1.70
2023-02-08T18:04:43.196Z,1.80
2023-02-08T18:07:13.868Z,1.80
2023-02-08T18:09:45.300Z,1.80
2023-02-08T18:12:16.492Z,1.90
2023-02-08T18:14:47.473Z,1.80
2023-02-08T18:17:18.095Z,1.60
2023-02-08T18:19:48.737Z,1.60
2023-02-08T18:22:21.807Z,1.60
2023-02-08T18:24:54.500Z,1.50
2023-02-08T18:27:27.416Z,1.80
2023-02-08T18:29:58.252Z,2.40
2023-02-08T18:35:09.116Z,2.50
2023-02-08T18:37:41.179Z,2.40
2023-02-08T18:40:14.251Z,2.10
2023-02-08T18:42:45.121Z,2.00
2023-02-08T18:45:15.731Z,1.90
2023-02-08T18:47:46.317Z,1.70
2023-02-08T18:50:17.366Z,1.60
2023-02-08T18:52:47.988Z,1.50
2023-02-08T18:55:37.231Z,1.40
2023-02-08T18:58:08.215Z,1.30
2023-02-08T19:00:39.238Z,1.30
2023-02-08T19:03:10.719Z,1.10
2023-02-08T19:05:42.069Z,1.00
2023-02-08T19:08:13.677Z,0.90
2023-02-08T19:10:45.100Z,0.90
2023-02-08T19:13:15.701Z,0.80
2023-02-08T19:15:46.553Z,0.80
2023-02-08T19:18:17.182Z,0.90
2023-02-08T19:20:48.035Z,0.90
2023-02-08T19:23:19.309Z,0.80
2023-02-08T19:25:51.602Z,0.90
2023-02-08T19:28:22.892Z,0.90
2023-02-08T19:30:55.405Z,0.90
2023-02-08T19:33:27.511Z,0.80
2023-02-08T19:35:58.537Z,0.90
2023-02-08T19:38:30.155Z,0.80
2023-02-08T19:41:01.707Z,0.80
2023-02-08T19:43:32.738Z,0.70
2023-02-08T19:46:04.141Z,0.70
2023-02-08T19:48:35.889Z,0.70
2023-02-08T19:51:08.706Z,0.70
2023-02-08T19:53:40.468Z,0.70
2023-02-08T19:56:14.367Z,0.70
2023-02-08T19:58:46.541Z,0.60
2023-02-08T20:01:22.417Z,0.50
2023-02-08T20:03:55.031Z,0.50
2023-02-08T20:06:28.938Z,0.40
2023-02-08T20:09:00.706Z,0.40
2023-02-08T20:11:34.083Z,0.40
2023-02-08T20:14:06.413Z,0.40
2023-02-08T20:16:37.621Z,0.50
2023-02-08T20:19:10.614Z,0.50
2023-02-08T20:21:43.946Z,0.60
2023-02-08T20:24:15.019Z,0.50
2023-02-08T20:26:49.706Z,0.30
2023-02-08T20:29:22.812Z,0.30
2023-02-08T20:31:56.037Z,0.20
2023-02-08T20:34:27.028Z,0.20
2023-02-08T20:37:07.390Z,0.30
2023-02-08T20:39:31.912Z,0.40
2023-02-08T20:42:02.541Z,0.40
2023-02-08T20:44:33.249Z,0.20
2023-02-08T20:47:04.079Z,0.10
2023-02-08T20:49:35.016Z,0.10
2023-02-08T20:52:06.315Z,0.10
2023-02-08T20:54:37.105Z,0.00
2023-02-08T20:57:08.744Z,0.00
2023-02-08T20:59:40.711Z,-0.10
2023-02-08T21:02:15.678Z,-0.10
2023-02-08T21:04:46.980Z,-0.20
2023-02-08T21:07:18.788Z,-0.20
2023-02-08T21:09:50.058Z,-0.20
2023-02-08T21:12:21.871Z,-0.20
2023-02-08T21:14:52.642Z,-0.20
2023-02-08T21:17:23.235Z,-0.20
2023-02-08T21:19:54.109Z,-0.20
2023-02-08T21:22:24.725Z,-0.20
2023-02-08T21:24:55.716Z,-0.30
2023-02-08T21:27:26.333Z,-0.30
2023-02-08T21:29:57.268Z,-0.30
2023-02-08T21:32:27.873Z,-0.40
2023-02-08T21:34:58.729Z,-0.50
2023-02-08T21:37:29.410Z,-0.70
2023-02-08T21:39:59.985Z,-0.60
2023-02-08T21:42:30.704Z,-0.60
2023-02-08T21:45:01.439Z,-0.60
2023-02-08T21:47:32.054Z,-0.60
2023-02-08T21:50:20.374Z,-0.60
2023-02-08T21:53:09.347Z,-0.60
2023-02-08T21:55:39.936Z,-0.30
2023-02-08T21:58:10.626Z,-0.20
2023-02-08T22:00:41.318Z,0.10
2023-02-08T22:03:12.038Z,0.30
2023-02-08T22:05:43.117Z,-0.10
2023-02-08T22:08:15.145Z,-0.30
2023-02-08T22:10:57.631Z,-0.30
2023-02-08T22:13:18.073Z,-0.40
2023-02-08T22:15:48.704Z,-0.40
2023-02-08T22:18:19.436Z,-0.30
2023-02-08T22:20:53.148Z,-0.30
2023-02-08T22:23:24.130Z,-0.50
2023-02-08T22:25:54.953Z,-0.70
2023-02-08T22:28:25.664Z,-0.80
2023-02-08T22:30:56.539Z,-0.90
2023-02-08T22:33:27.168Z,-0.90
2023-02-08T22:35:57.974Z,-0.80
2023-02-08T22:38:28.592Z,-0.70
2023-02-08T22:40:59.174Z,-0.60
2023-02-08T22:43:30.913Z,-0.70
2023-02-08T22:46:02.555Z,-0.50
2023-02-08T22:48:33.738Z,-0.60
2023-02-08T22:51:09.464Z,-0.60
2023-02-08T22:53:40.261Z,-0.40
2023-02-08T22:56:11.649Z,-0.50
2023-02-08T22:58:42.632Z,-0.60
2023-02-08T23:01:14.083Z,-0.80
2023-02-08T23:03:45.243Z,-0.90
2023-02-08T23:06:18.252Z,-0.90
2023-02-08T23:08:49.282Z,-1.00
2023-02-08T23:11:21.393Z,-0.90
2023-02-08T23:13:52.182Z,-0.90
2023-02-08T23:16:22.869Z,-1.10
2023-02-08T23:18:53.617Z,-1.00
2023-02-08T23:21:24.337Z,-0.90
2023-02-08T23:23:54.959Z,-0.80
2023-02-08T23:26:26.303Z,-0.80
2023-02-08T23:28:57.002Z,-0.90
2023-02-08T23:31:28.198Z,-1.00
2023-02-08T23:33:59.495Z,-1.10
2023-02-08T23:36:30.633Z,-1.00
2023-02-08T23:39:03.471Z,-1.10
2023-02-08T23:41:34.733Z,-1.20
2023-02-08T23:44:05.355Z,-1.10
2023-02-08T23:46:36.146Z,-1.10
2023-02-08T23:49:06.941Z,-0.90
2023-02-08T23:51:37.986Z,-0.90
2023-02-08T23:54:10.069Z,-0.90
2023-02-08T23:56:41.675Z,-1.10
2023-02-08T23:59:13.611Z,-1.10
